sensor_id;sensor_type;location;lat;lon;timestamp;P1;durP1;ratioP1;P2;durP2;ratioP2
43626;SDS011;29217;52.586;13.442;2024-03-06T00:00:25;44.88;;;15.07;;
43626;SDS011;29217;52.586;13.442;2024-03-06T00:02:51;31.98;;;12.98;;
43626;SDS011;29217;52.586;13.442;2024-03-06T00:05:17;29.33;;;12.73;;
43626;SDS011;29217;52.586;13.442;2024-03-06T00:07:43;27.48;;;11.48;;
43626;SDS011;29217;52.586;13.442;2024-03-06T00:10:10;19.98;;;10.43;;
43626;SDS011;29217;52.586;13.442;2024-03-06T00:12:36;21.88;;;11.45;;
43626;SDS011;29217;52.586;13.442;2024-03-06T00:15:03;21.17;;;10.45;;
43626;SDS011;29217;52.586;13.442;2024-03-06T00:17:29;21.73;;;10.70;;
43626;SDS011;29217;52.586;13.442;2024-03-06T00:19:55;23.50;;;10.70;;
43626;SDS011;29217;52.586;13.442;2024-03-06T00:22:21;26.88;;;10.40;;
43626;SDS011;29217;52.586;13.442;2024-03-06T00:24:47;30.10;;;12.10;;
43626;SDS011;29217;52.586;13.442;2024-03-06T00:27:14;26.15;;;11.68;;
43626;SDS011;29217;52.586;13.442;2024-03-06T00:29:40;22.25;;;9.93;;
43626;SDS011;29217;52.586;13.442;2024-03-06T00:32:06;21.45;;;10.52;;
43626;SDS011;29217;52.586;13.442;2024-03-06T00:34:32;23.17;;;10.98;;
43626;SDS011;29217;52.586;13.442;2024-03-06T00:36:58;23.90;;;9.25;;
43626;SDS011;29217;52.586;13.442;2024-03-06T00:39:24;20.95;;;8.95;;
43626;SDS011;29217;52.586;13.442;2024-03-06T00:41:50;22.77;;;10.00;;
43626;SDS011;29217;52.586;13.442;2024-03-06T00:44:18;23.30;;;9.82;;
43626;SDS011;29217;52.586;13.442;2024-03-06T00:46:44;16.50;;;8.50;;
43626;SDS011;29217;52.586;13.442;2024-03-06T00:49:10;17.63;;;8.80;;
43626;SDS011;29217;52.586;13.442;2024-03-06T00:51:36;28.27;;;10.60;;
43626;SDS011;29217;52.586;13.442;2024-03-06T00:54:02;18.15;;;8.90;;
43626;SDS011;29217;52.586;13.442;2024-03-06T00:56:29;20.70;;;9.55;;
43626;SDS011;29217;52.586;13.442;2024-03-06T00:58:56;18.25;;;8.70;;
43626;SDS011;29217;52.586;13.442;2024-03-06T01:01:22;18.55;;;8.93;;
43626;SDS011;29217;52.586;13.442;2024-03-06T01:03:48;16.05;;;8.02;;
43626;SDS011;29217;52.586;13.442;2024-03-06T01:06:15;23.73;;;9.43;;
43626;SDS011;29217;52.586;13.442;2024-03-06T01:08:42;20.55;;;9.13;;
43626;SDS011;29217;52.586;13.442;2024-03-06T01:11:09;19.67;;;9.52;;
43626;SDS011;29217;52.586;13.442;2024-03-06T01:13:39;15.23;;;7.93;;
43626;SDS011;29217;52.586;13.442;2024-03-06T01:16:05;19.25;;;7.97;;
43626;SDS011;29217;52.586;13.442;2024-03-06T01:18:31;18.92;;;8.00;;
43626;SDS011;29217;52.586;13.442;2024-03-06T01:20:57;17.55;;;8.90;;
43626;SDS011;29217;52.586;13.442;2024-03-06T01:23:24;16.80;;;8.13;;
43626;SDS011;29217;52.586;13.442;2024-03-06T01:25:50;14.48;;;7.60;;
43626;SDS011;29217;52.586;13.442;2024-03-06T01:28:16;15.90;;;7.82;;
43626;SDS011;29217;52.586;13.442;2024-03-06T01:30:43;15.93;;;8.43;;
43626;SDS011;29217;52.586;13.442;2024-03-06T01:33:09;15.30;;;8.18;;
43626;SDS011;29217;52.586;13.442;2024-03-06T01:35:35;16.60;;;8.07;;
43626;SDS011;29217;52.586;13.442;2024-03-06T01:38:01;12.15;;;7.28;;
43626;SDS011;29217;52.586;13.442;2024-03-06T01:40:27;17.50;;;8.93;;
43626;SDS011;29217;52.586;13.442;2024-03-06T01:42:54;14.43;;;7.20;;
43626;SDS011;29217;52.586;13.442;2024-03-06T01:45:20;11.88;;;7.00;;
43626;SDS011;29217;52.586;13.442;2024-03-06T01:47:46;15.65;;;7.63;;
43626;SDS011;29217;52.586;13.442;2024-03-06T01:50:12;15.38;;;7.90;;
43626;SDS011;29217;52.586;13.442;2024-03-06T01:52:39;19.25;;;7.72;;
43626;SDS011;29217;52.586;13.442;2024-03-06T01:55:06;14.63;;;7.40;;
43626;SDS011;29217;52.586;13.442;2024-03-06T01:57:33;16.52;;;8.23;;
43626;SDS011;29217;52.586;13.442;2024-03-06T01:59:59;15.48;;;7.88;;
43626;SDS011;29217;52.586;13.442;2024-03-06T02:02:26;18.55;;;8.60;;
43626;SDS011;29217;52.586;13.442;2024-03-06T02:04:55;15.38;;;7.55;;
43626;SDS011;29217;52.586;13.442;2024-03-06T02:07:22;17.55;;;8.00;;
43626;SDS011;29217;52.586;13.442;2024-03-06T02:09:49;13.38;;;7.13;;
43626;SDS011;29217;52.586;13.442;2024-03-06T02:12:16;15.82;;;7.55;;
43626;SDS011;29217;52.586;13.442;2024-03-06T02:14:42;11.70;;;6.75;;
43626;SDS011;29217;52.586;13.442;2024-03-06T02:17:08;20.00;;;8.05;;
43626;SDS011;29217;52.586;13.442;2024-03-06T02:19:41;14.40;;;7.30;;
43626;SDS011;29217;52.586;13.442;2024-03-06T02:22:07;19.15;;;7.95;;
43626;SDS011;29217;52.586;13.442;2024-03-06T02:24:34;17.55;;;7.28;;
43626;SDS011;29217;52.586;13.442;2024-03-06T02:27:01;13.20;;;7.50;;
43626;SDS011;29217;52.586;13.442;2024-03-06T02:29:27;16.30;;;7.93;;
43626;SDS011;29217;52.586;13.442;2024-03-06T02:31:53;18.88;;;8.07;;
43626;SDS011;29217;52.586;13.442;2024-03-06T02:34:19;16.70;;;7.88;;
43626;SDS011;29217;52.586;13.442;2024-03-06T02:36:45;14.90;;;7.03;;
43626;SDS011;29217;52.586;13.442;2024-03-06T02:39:11;16.75;;;8.57;;
43626;SDS011;29217;52.586;13.442;2024-03-06T02:41:37;18.30;;;8.25;;
43626;SDS011;29217;52.586;13.442;2024-03-06T02:44:03;20.75;;;9.10;;
43626;SDS011;29217;52.586;13.442;2024-03-06T02:46:29;16.92;;;8.13;;
43626;SDS011;29217;52.586;13.442;2024-03-06T02:48:55;16.83;;;8.23;;
43626;SDS011;29217;52.586;13.442;2024-03-06T02:51:21;25.65;;;8.35;;
43626;SDS011;29217;52.586;13.442;2024-03-06T02:53:47;18.65;;;8.68;;
43626;SDS011;29217;52.586;13.442;2024-03-06T02:56:17;18.30;;;7.63;;
43626;SDS011;29217;52.586;13.442;2024-03-06T02:58:44;25.00;;;8.52;;
43626;SDS011;29217;52.586;13.442;2024-03-06T03:01:10;20.58;;;8.35;;
43626;SDS011;29217;52.586;13.442;2024-03-06T03:03:36;18.48;;;9.52;;
43626;SDS011;29217;52.586;13.442;2024-03-06T03:06:02;16.23;;;8.90;;
43626;SDS011;29217;52.586;13.442;2024-03-06T03:08:29;20.42;;;8.30;;
43626;SDS011;29217;52.586;13.442;2024-03-06T03:10:55;26.27;;;8.52;;
43626;SDS011;29217;52.586;13.442;2024-03-06T03:13:22;14.68;;;7.60;;
43626;SDS011;29217;52.586;13.442;2024-03-06T03:15:48;14.65;;;8.13;;
43626;SDS011;29217;52.586;13.442;2024-03-06T03:18:14;18.77;;;8.70;;
43626;SDS011;29217;52.586;13.442;2024-03-06T03:20:40;16.48;;;9.25;;
43626;SDS011;29217;52.586;13.442;2024-03-06T03:23:06;20.13;;;8.85;;
43626;SDS011;29217;52.586;13.442;2024-03-06T03:25:36;16.27;;;8.00;;
43626;SDS011;29217;52.586;13.442;2024-03-06T03:28:02;17.33;;;8.10;;
43626;SDS011;29217;52.586;13.442;2024-03-06T03:30:28;16.10;;;8.35;;
43626;SDS011;29217;52.586;13.442;2024-03-06T03:32:54;24.63;;;9.30;;
43626;SDS011;29217;52.586;13.442;2024-03-06T03:35:20;22.63;;;8.73;;
43626;SDS011;29217;52.586;13.442;2024-03-06T03:37:50;20.60;;;9.18;;
43626;SDS011;29217;52.586;13.442;2024-03-06T03:40:17;22.13;;;9.63;;
43626;SDS011;29217;52.586;13.442;2024-03-06T03:42:45;24.65;;;10.30;;
43626;SDS011;29217;52.586;13.442;2024-03-06T03:45:11;21.13;;;9.23;;
43626;SDS011;29217;52.586;13.442;2024-03-06T03:47:37;20.70;;;8.98;;
43626;SDS011;29217;52.586;13.442;2024-03-06T03:50:03;17.63;;;8.85;;
43626;SDS011;29217;52.586;13.442;2024-03-06T03:52:29;22.13;;;9.45;;
43626;SDS011;29217;52.586;13.442;2024-03-06T03:54:55;20.92;;;9.13;;
43626;SDS011;29217;52.586;13.442;2024-03-06T03:57:22;19.45;;;9.30;;
43626;SDS011;29217;52.586;13.442;2024-03-06T03:59:48;22.10;;;8.77;;
43626;SDS011;29217;52.586;13.442;2024-03-06T04:02:14;17.02;;;8.63;;
43626;SDS011;29217;52.586;13.442;2024-03-06T04:04:40;19.08;;;8.27;;
43626;SDS011;29217;52.586;13.442;2024-03-06T04:07:05;18.70;;;9.20;;
43626;SDS011;29217;52.586;13.442;2024-03-06T04:09:32;22.50;;;9.07;;
43626;SDS011;29217;52.586;13.442;2024-03-06T04:12:01;20.75;;;9.63;;
43626;SDS011;29217;52.586;13.442;2024-03-06T04:14:28;22.08;;;9.63;;
43626;SDS011;29217;52.586;13.442;2024-03-06T04:16:55;20.00;;;9.50;;
43626;SDS011;29217;52.586;13.442;2024-03-06T04:19:21;28.73;;;11.48;;
43626;SDS011;29217;52.586;13.442;2024-03-06T04:21:47;31.65;;;11.65;;
43626;SDS011;29217;52.586;13.442;2024-03-06T04:24:13;32.33;;;11.02;;
43626;SDS011;29217;52.586;13.442;2024-03-06T04:26:39;26.50;;;11.10;;
43626;SDS011;29217;52.586;13.442;2024-03-06T04:29:05;29.20;;;12.27;;
43626;SDS011;29217;52.586;13.442;2024-03-06T04:31:31;34.78;;;12.57;;
43626;SDS011;29217;52.586;13.442;2024-03-06T04:33:57;32.40;;;12.63;;
43626;SDS011;29217;52.586;13.442;2024-03-06T04:36:23;30.67;;;13.13;;
43626;SDS011;29217;52.586;13.442;2024-03-06T04:38:49;33.80;;;12.20;;
43626;SDS011;29217;52.586;13.442;2024-03-06T04:41:18;28.48;;;12.20;;
43626;SDS011;29217;52.586;13.442;2024-03-06T04:43:44;28.83;;;11.27;;
43626;SDS011;29217;52.586;13.442;2024-03-06T04:46:13;28.52;;;11.13;;
43626;SDS011;29217;52.586;13.442;2024-03-06T04:48:39;25.50;;;10.32;;
43626;SDS011;29217;52.586;13.442;2024-03-06T04:51:05;23.30;;;9.85;;
43626;SDS011;29217;52.586;13.442;2024-03-06T04:53:31;26.80;;;9.50;;
43626;SDS011;29217;52.586;13.442;2024-03-06T04:55:57;25.77;;;10.35;;
43626;SDS011;29217;52.586;13.442;2024-03-06T04:58:23;26.52;;;11.25;;
43626;SDS011;29217;52.586;13.442;2024-03-06T05:00:49;29.50;;;10.50;;
43626;SDS011;29217;52.586;13.442;2024-03-06T05:03:15;26.27;;;11.18;;
43626;SDS011;29217;52.586;13.442;2024-03-06T05:05:41;36.28;;;13.35;;
43626;SDS011;29217;52.586;13.442;2024-03-06T05:08:07;37.55;;;14.98;;
43626;SDS011;29217;52.586;13.442;2024-03-06T05:10:34;45.88;;;14.90;;
43626;SDS011;29217;52.586;13.442;2024-03-06T05:13:01;54.92;;;15.82;;
43626;SDS011;29217;52.586;13.442;2024-03-06T05:15:27;44.65;;;16.45;;
43626;SDS011;29217;52.586;13.442;2024-03-06T05:17:53;48.83;;;16.13;;
43626;SDS011;29217;52.586;13.442;2024-03-06T05:20:20;45.90;;;16.70;;
43626;SDS011;29217;52.586;13.442;2024-03-06T05:22:46;40.00;;;15.93;;
43626;SDS011;29217;52.586;13.442;2024-03-06T05:25:12;59.40;;;19.33;;
43626;SDS011;29217;52.586;13.442;2024-03-06T05:27:38;40.47;;;15.90;;
43626;SDS011;29217;52.586;13.442;2024-03-06T05:30:04;37.75;;;15.32;;
43626;SDS011;29217;52.586;13.442;2024-03-06T05:32:31;42.00;;;15.20;;
43626;SDS011;29217;52.586;13.442;2024-03-06T05:34:57;33.15;;;13.77;;
43626;SDS011;29217;52.586;13.442;2024-03-06T05:37:23;34.53;;;14.93;;
43626;SDS011;29217;52.586;13.442;2024-03-06T05:39:49;38.40;;;14.32;;
43626;SDS011;29217;52.586;13.442;2024-03-06T05:42:15;42.33;;;14.32;;
43626;SDS011;29217;52.586;13.442;2024-03-06T05:44:41;32.20;;;15.85;;
43626;SDS011;29217;52.586;13.442;2024-03-06T05:47:07;39.50;;;13.80;;
43626;SDS011;29217;52.586;13.442;2024-03-06T05:49:33;35.63;;;14.48;;
43626;SDS011;29217;52.586;13.442;2024-03-06T05:51:59;38.22;;;14.70;;
43626;SDS011;29217;52.586;13.442;2024-03-06T05:54:25;43.20;;;15.95;;
43626;SDS011;29217;52.586;13.442;2024-03-06T05:56:52;41.22;;;14.90;;
43626;SDS011;29217;52.586;13.442;2024-03-06T05:59:18;36.22;;;12.98;;
43626;SDS011;29217;52.586;13.442;2024-03-06T06:01:44;33.30;;;13.38;;
43626;SDS011;29217;52.586;13.442;2024-03-06T06:04:11;34.63;;;13.55;;
43626;SDS011;29217;52.586;13.442;2024-03-06T06:06:38;31.67;;;13.20;;
43626;SDS011;29217;52.586;13.442;2024-03-06T06:09:04;35.03;;;13.40;;
43626;SDS011;29217;52.586;13.442;2024-03-06T06:11:31;32.25;;;12.43;;
43626;SDS011;29217;52.586;13.442;2024-03-06T06:13:58;26.75;;;12.15;;
43626;SDS011;29217;52.586;13.442;2024-03-06T06:16:24;29.75;;;12.60;;
43626;SDS011;29217;52.586;13.442;2024-03-06T06:18:50;33.67;;;13.43;;
43626;SDS011;29217;52.586;13.442;2024-03-06T06:21:16;43.08;;;11.68;;
43626;SDS011;29217;52.586;13.442;2024-03-06T06:23:43;50.38;;;13.40;;
43626;SDS011;29217;52.586;13.442;2024-03-06T06:26:09;38.90;;;13.20;;
43626;SDS011;29217;52.586;13.442;2024-03-06T06:28:35;35.33;;;12.65;;
43626;SDS011;29217;52.586;13.442;2024-03-06T06:31:02;33.10;;;11.85;;
43626;SDS011;29217;52.586;13.442;2024-03-06T06:33:29;45.75;;;13.13;;
43626;SDS011;29217;52.586;13.442;2024-03-06T06:35:55;40.10;;;12.05;;
43626;SDS011;29217;52.586;13.442;2024-03-06T06:38:21;31.13;;;11.57;;
43626;SDS011;29217;52.586;13.442;2024-03-06T06:40:47;27.02;;;12.85;;
43626;SDS011;29217;52.586;13.442;2024-03-06T06:43:13;22.35;;;10.50;;
43626;SDS011;29217;52.586;13.442;2024-03-06T06:45:40;25.33;;;11.15;;
43626;SDS011;29217;52.586;13.442;2024-03-06T06:48:06;27.88;;;11.18;;
43626;SDS011;29217;52.586;13.442;2024-03-06T06:50:34;28.20;;;11.93;;
43626;SDS011;29217;52.586;13.442;2024-03-06T06:52:59;29.17;;;10.07;;
43626;SDS011;29217;52.586;13.442;2024-03-06T06:55:26;21.23;;;9.60;;
43626;SDS011;29217;52.586;13.442;2024-03-06T06:57:52;21.13;;;9.80;;
43626;SDS011;29217;52.586;13.442;2024-03-06T07:00:18;24.05;;;8.90;;
43626;SDS011;29217;52.586;13.442;2024-03-06T07:02:46;22.60;;;9.93;;
43626;SDS011;29217;52.586;13.442;2024-03-06T07:05:12;33.10;;;10.48;;
43626;SDS011;29217;52.586;13.442;2024-03-06T07:07:38;25.00;;;9.05;;
43626;SDS011;29217;52.586;13.442;2024-03-06T07:10:05;19.10;;;9.52;;
43626;SDS011;29217;52.586;13.442;2024-03-06T07:12:31;24.38;;;10.25;;
43626;SDS011;29217;52.586;13.442;2024-03-06T07:14:57;20.90;;;10.55;;
43626;SDS011;29217;52.586;13.442;2024-03-06T07:17:24;26.77;;;10.30;;
43626;SDS011;29217;52.586;13.442;2024-03-06T07:19:50;23.17;;;10.60;;
43626;SDS011;29217;52.586;13.442;2024-03-06T07:22:17;25.40;;;10.90;;
43626;SDS011;29217;52.586;13.442;2024-03-06T07:24:43;25.27;;;12.40;;
43626;SDS011;29217;52.586;13.442;2024-03-06T07:27:09;25.60;;;10.27;;
43626;SDS011;29217;52.586;13.442;2024-03-06T07:29:36;23.50;;;10.05;;
43626;SDS011;29217;52.586;13.442;2024-03-06T07:32:02;23.73;;;11.15;;
43626;SDS011;29217;52.586;13.442;2024-03-06T07:34:29;26.30;;;11.52;;
43626;SDS011;29217;52.586;13.442;2024-03-06T07:36:55;26.25;;;11.57;;
43626;SDS011;29217;52.586;13.442;2024-03-06T07:39:21;23.15;;;10.05;;
43626;SDS011;29217;52.586;13.442;2024-03-06T07:41:47;23.50;;;10.18;;
43626;SDS011;29217;52.586;13.442;2024-03-06T07:44:13;20.98;;;10.30;;
43626;SDS011;29217;52.586;13.442;2024-03-06T07:46:39;25.88;;;10.73;;
43626;SDS011;29217;52.586;13.442;2024-03-06T07:49:05;26.20;;;10.68;;
43626;SDS011;29217;52.586;13.442;2024-03-06T07:51:32;30.50;;;11.90;;
43626;SDS011;29217;52.586;13.442;2024-03-06T07:53:58;25.45;;;11.05;;
43626;SDS011;29217;52.586;13.442;2024-03-06T07:56:25;29.77;;;11.25;;
43626;SDS011;29217;52.586;13.442;2024-03-06T07:58:52;24.70;;;10.63;;
43626;SDS011;29217;52.586;13.442;2024-03-06T08:01:21;23.48;;;10.38;;
43626;SDS011;29217;52.586;13.442;2024-03-06T08:03:47;23.85;;;10.05;;
43626;SDS011;29217;52.586;13.442;2024-03-06T08:06:13;28.23;;;11.13;;
43626;SDS011;29217;52.586;13.442;2024-03-06T08:08:42;24.63;;;8.77;;
43626;SDS011;29217;52.586;13.442;2024-03-06T08:11:09;18.33;;;8.95;;
43626;SDS011;29217;52.586;13.442;2024-03-06T08:13:36;19.20;;;8.52;;
43626;SDS011;29217;52.586;13.442;2024-03-06T08:16:02;20.42;;;9.10;;
43626;SDS011;29217;52.586;13.442;2024-03-06T08:18:29;20.27;;;9.20;;
43626;SDS011;29217;52.586;13.442;2024-03-06T08:20:55;17.50;;;8.30;;
43626;SDS011;29217;52.586;13.442;2024-03-06T08:23:23;18.60;;;8.43;;
43626;SDS011;29217;52.586;13.442;2024-03-06T08:25:50;19.67;;;8.48;;
43626;SDS011;29217;52.586;13.442;2024-03-06T08:28:20;21.30;;;7.55;;
43626;SDS011;29217;52.586;13.442;2024-03-06T08:30:46;20.10;;;8.55;;
43626;SDS011;29217;52.586;13.442;2024-03-06T08:33:12;21.70;;;8.90;;
43626;SDS011;29217;52.586;13.442;2024-03-06T08:35:38;15.43;;;7.22;;
43626;SDS011;29217;52.586;13.442;2024-03-06T08:38:05;15.63;;;7.40;;
43626;SDS011;29217;52.586;13.442;2024-03-06T08:40:31;12.77;;;6.70;;
43626;SDS011;29217;52.586;13.442;2024-03-06T08:42:57;15.10;;;7.68;;
43626;SDS011;29217;52.586;13.442;2024-03-06T08:45:25;12.90;;;6.57;;
43626;SDS011;29217;52.586;13.442;2024-03-06T08:47:51;14.10;;;6.88;;
43626;SDS011;29217;52.586;13.442;2024-03-06T08:50:19;12.90;;;5.90;;
43626;SDS011;29217;52.586;13.442;2024-03-06T08:52:45;15.38;;;7.55;;
43626;SDS011;29217;52.586;13.442;2024-03-06T08:55:12;14.00;;;6.95;;
43626;SDS011;29217;52.586;13.442;2024-03-06T08:57:39;16.98;;;7.35;;
43626;SDS011;29217;52.586;13.442;2024-03-06T09:00:06;16.45;;;6.95;;
43626;SDS011;29217;52.586;13.442;2024-03-06T09:02:39;13.77;;;7.00;;
43626;SDS011;29217;52.586;13.442;2024-03-06T09:05:06;17.77;;;6.43;;
43626;SDS011;29217;52.586;13.442;2024-03-06T09:07:33;14.55;;;6.82;;
43626;SDS011;29217;52.586;13.442;2024-03-06T09:10:03;14.43;;;6.85;;
43626;SDS011;29217;52.586;13.442;2024-03-06T09:12:30;12.27;;;5.90;;
43626;SDS011;29217;52.586;13.442;2024-03-06T09:14:57;11.75;;;6.05;;
43626;SDS011;29217;52.586;13.442;2024-03-06T09:17:25;13.25;;;6.60;;
43626;SDS011;29217;52.586;13.442;2024-03-06T09:19:51;17.73;;;6.40;;
43626;SDS011;29217;52.586;13.442;2024-03-06T09:22:17;15.43;;;6.90;;
43626;SDS011;29217;52.586;13.442;2024-03-06T09:24:43;14.98;;;7.93;;
43626;SDS011;29217;52.586;13.442;2024-03-06T09:27:09;10.43;;;5.57;;
43626;SDS011;29217;52.586;13.442;2024-03-06T09:29:35;12.38;;;6.47;;
43626;SDS011;29217;52.586;13.442;2024-03-06T09:32:01;13.57;;;6.40;;
43626;SDS011;29217;52.586;13.442;2024-03-06T09:34:27;14.00;;;6.43;;
43626;SDS011;29217;52.586;13.442;2024-03-06T09:36:53;14.00;;;6.28;;
43626;SDS011;29217;52.586;13.442;2024-03-06T09:39:20;11.95;;;5.65;;
43626;SDS011;29217;52.586;13.442;2024-03-06T09:41:47;12.23;;;6.45;;
43626;SDS011;29217;52.586;13.442;2024-03-06T09:44:14;9.35;;;5.05;;
43626;SDS011;29217;52.586;13.442;2024-03-06T09:46:42;14.68;;;6.32;;
43626;SDS011;29217;52.586;13.442;2024-03-06T09:49:09;15.80;;;6.60;;
43626;SDS011;29217;52.586;13.442;2024-03-06T09:51:36;13.40;;;6.63;;
43626;SDS011;29217;52.586;13.442;2024-03-06T09:54:07;13.90;;;6.00;;
43626;SDS011;29217;52.586;13.442;2024-03-06T09:56:34;17.33;;;7.70;;
43626;SDS011;29217;52.586;13.442;2024-03-06T09:59:00;14.70;;;7.20;;
43626;SDS011;29217;52.586;13.442;2024-03-06T10:01:28;14.27;;;6.38;;
43626;SDS011;29217;52.586;13.442;2024-03-06T10:03:56;12.98;;;6.65;;
43626;SDS011;29217;52.586;13.442;2024-03-06T10:06:22;13.25;;;5.18;;
43626;SDS011;29217;52.586;13.442;2024-03-06T10:08:48;17.35;;;6.43;;
43626;SDS011;29217;52.586;13.442;2024-03-06T10:11:17;9.60;;;4.90;;
43626;SDS011;29217;52.586;13.442;2024-03-06T10:13:43;11.80;;;5.88;;
43626;SDS011;29217;52.586;13.442;2024-03-06T10:16:09;12.60;;;6.60;;
43626;SDS011;29217;52.586;13.442;2024-03-06T10:18:36;13.52;;;6.35;;
43626;SDS011;29217;52.586;13.442;2024-03-06T10:21:05;11.43;;;6.15;;
43626;SDS011;29217;52.586;13.442;2024-03-06T10:23:31;12.57;;;6.47;;
43626;SDS011;29217;52.586;13.442;2024-03-06T10:25:57;15.30;;;6.43;;
43626;SDS011;29217;52.586;13.442;2024-03-06T10:28:23;12.90;;;5.95;;
43626;SDS011;29217;52.586;13.442;2024-03-06T10:30:50;12.77;;;6.47;;
43626;SDS011;29217;52.586;13.442;2024-03-06T10:33:17;12.38;;;6.43;;
43626;SDS011;29217;52.586;13.442;2024-03-06T10:35:44;10.85;;;6.05;;
43626;SDS011;29217;52.586;13.442;2024-03-06T10:38:11;11.10;;;5.15;;
43626;SDS011;29217;52.586;13.442;2024-03-06T10:40:38;12.55;;;6.18;;
43626;SDS011;29217;52.586;13.442;2024-03-06T10:43:05;11.80;;;7.00;;
43626;SDS011;29217;52.586;13.442;2024-03-06T10:48:07;16.45;;;7.60;;
43626;SDS011;29217;52.586;13.442;2024-03-06T10:50:38;12.13;;;6.38;;
43626;SDS011;29217;52.586;13.442;2024-03-06T10:53:07;9.73;;;5.95;;
43626;SDS011;29217;52.586;13.442;2024-03-06T10:55:38;15.50;;;7.18;;
43626;SDS011;29217;52.586;13.442;2024-03-06T10:58:07;16.77;;;8.38;;
43626;SDS011;29217;52.586;13.442;2024-03-06T11:00:40;15.68;;;7.72;;
43626;SDS011;29217;52.586;13.442;2024-03-06T11:03:07;16.65;;;7.32;;
43626;SDS011;29217;52.586;13.442;2024-03-06T11:05:43;13.80;;;6.97;;
43626;SDS011;29217;52.586;13.442;2024-03-06T11:08:12;18.95;;;8.77;;
43626;SDS011;29217;52.586;13.442;2024-03-06T11:10:40;19.13;;;8.45;;
43626;SDS011;29217;52.586;13.442;2024-03-06T11:13:22;17.70;;;9.10;;
43626;SDS011;29217;52.586;13.442;2024-03-06T11:15:50;17.17;;;9.00;;
43626;SDS011;29217;52.586;13.442;2024-03-06T11:23:29;22.88;;;10.15;;
43626;SDS011;29217;52.586;13.442;2024-03-06T11:25:56;20.60;;;10.15;;
43626;SDS011;29217;52.586;13.442;2024-03-06T11:28:27;21.42;;;11.20;;
43626;SDS011;29217;52.586;13.442;2024-03-06T11:33:19;18.88;;;10.70;;
43626;SDS011;29217;52.586;13.442;2024-03-06T11:38:30;16.48;;;8.30;;
43626;SDS011;29217;52.586;13.442;2024-03-06T11:40:57;15.68;;;8.48;;
43626;SDS011;29217;52.586;13.442;2024-03-06T11:45:50;17.20;;;7.72;;
43626;SDS011;29217;52.586;13.442;2024-03-06T11:48:16;13.55;;;6.75;;
43626;SDS011;29217;52.586;13.442;2024-03-06T11:50:42;13.27;;;6.70;;
43626;SDS011;29217;52.586;13.442;2024-03-06T11:53:08;12.50;;;6.65;;
43626;SDS011;29217;52.586;13.442;2024-03-06T11:55:34;13.45;;;6.78;;
43626;SDS011;29217;52.586;13.442;2024-03-06T11:58:00;14.57;;;7.13;;
43626;SDS011;29217;52.586;13.442;2024-03-06T12:00:29;12.70;;;7.13;;
43626;SDS011;29217;52.586;13.442;2024-03-06T12:02:55;11.00;;;6.88;;
43626;SDS011;29217;52.586;13.442;2024-03-06T12:05:22;11.40;;;6.15;;
43626;SDS011;29217;52.586;13.442;2024-03-06T12:07:50;12.95;;;6.95;;
43626;SDS011;29217;52.586;13.442;2024-03-06T12:10:16;10.90;;;6.03;;
43626;SDS011;29217;52.586;13.442;2024-03-06T12:12:43;13.00;;;6.03;;
43626;SDS011;29217;52.586;13.442;2024-03-06T12:15:10;10.52;;;6.18;;
43626;SDS011;29217;52.586;13.442;2024-03-06T12:17:47;10.73;;;6.07;;
43626;SDS011;29217;52.586;13.442;2024-03-06T12:20:15;11.65;;;6.22;;
43626;SDS011;29217;52.586;13.442;2024-03-06T12:22:51;7.93;;;4.95;;
43626;SDS011;29217;52.586;13.442;2024-03-06T12:25:22;10.35;;;6.07;;
43626;SDS011;29217;52.586;13.442;2024-03-06T12:27:48;8.68;;;5.22;;
43626;SDS011;29217;52.586;13.442;2024-03-06T12:30:18;11.63;;;5.90;;
43626;SDS011;29217;52.586;13.442;2024-03-06T12:32:58;14.00;;;6.95;;
43626;SDS011;29217;52.586;13.442;2024-03-06T12:35:29;18.20;;;8.38;;
43626;SDS011;29217;52.586;13.442;2024-03-06T12:37:55;16.58;;;8.05;;
43626;SDS011;29217;52.586;13.442;2024-03-06T12:40:21;19.35;;;8.50;;
43626;SDS011;29217;52.586;13.442;2024-03-06T12:42:47;18.17;;;7.22;;
43626;SDS011;29217;52.586;13.442;2024-03-06T12:45:15;23.05;;;8.40;;
43626;SDS011;29217;52.586;13.442;2024-03-06T12:47:44;15.77;;;7.53;;
43626;SDS011;29217;52.586;13.442;2024-03-06T12:50:13;13.43;;;6.75;;
43626;SDS011;29217;52.586;13.442;2024-03-06T12:52:39;16.33;;;8.02;;
43626;SDS011;29217;52.586;13.442;2024-03-06T12:55:05;20.58;;;7.88;;
43626;SDS011;29217;52.586;13.442;2024-03-06T12:57:32;19.13;;;8.25;;
43626;SDS011;29217;52.586;13.442;2024-03-06T12:59:58;17.63;;;8.27;;
43626;SDS011;29217;52.586;13.442;2024-03-06T13:02:24;21.95;;;8.48;;
43626;SDS011;29217;52.586;13.442;2024-03-06T13:04:51;20.98;;;8.98;;
43626;SDS011;29217;52.586;13.442;2024-03-06T13:07:18;22.85;;;9.07;;
43626;SDS011;29217;52.586;13.442;2024-03-06T13:09:44;14.05;;;7.00;;
43626;SDS011;29217;52.586;13.442;2024-03-06T13:12:10;14.15;;;7.13;;
43626;SDS011;29217;52.586;13.442;2024-03-06T13:14:36;16.70;;;7.50;;
43626;SDS011;29217;52.586;13.442;2024-03-06T13:17:02;18.20;;;8.43;;
43626;SDS011;29217;52.586;13.442;2024-03-06T13:19:28;21.38;;;8.25;;
43626;SDS011;29217;52.586;13.442;2024-03-06T13:21:56;21.00;;;9.13;;
43626;SDS011;29217;52.586;13.442;2024-03-06T13:24:22;23.73;;;8.98;;
43626;SDS011;29217;52.586;13.442;2024-03-06T13:26:48;18.17;;;8.13;;
43626;SDS011;29217;52.586;13.442;2024-03-06T13:29:15;23.23;;;9.25;;
43626;SDS011;29217;52.586;13.442;2024-03-06T13:31:41;28.30;;;10.43;;
43626;SDS011;29217;52.586;13.442;2024-03-06T13:34:08;19.48;;;8.70;;
43626;SDS011;29217;52.586;13.442;2024-03-06T13:36:34;28.60;;;10.75;;
43626;SDS011;29217;52.586;13.442;2024-03-06T13:39:00;26.65;;;9.27;;
43626;SDS011;29217;52.586;13.442;2024-03-06T13:41:26;18.25;;;7.93;;
43626;SDS011;29217;52.586;13.442;2024-03-06T13:43:52;26.58;;;10.10;;
43626;SDS011;29217;52.586;13.442;2024-03-06T13:46:18;20.95;;;8.07;;
43626;SDS011;29217;52.586;13.442;2024-03-06T13:48:44;20.48;;;7.75;;
43626;SDS011;29217;52.586;13.442;2024-03-06T13:51:11;16.50;;;7.38;;
43626;SDS011;29217;52.586;13.442;2024-03-06T13:53:37;19.35;;;6.95;;
43626;SDS011;29217;52.586;13.442;2024-03-06T13:56:03;20.20;;;7.45;;
43626;SDS011;29217;52.586;13.442;2024-03-06T13:58:29;23.17;;;8.93;;
43626;SDS011;29217;52.586;13.442;2024-03-06T14:00:55;21.02;;;8.18;;
43626;SDS011;29217;52.586;13.442;2024-03-06T14:03:21;24.30;;;8.15;;
43626;SDS011;29217;52.586;13.442;2024-03-06T14:05:47;30.00;;;10.00;;
43626;SDS011;29217;52.586;13.442;2024-03-06T14:08:13;21.35;;;7.93;;
43626;SDS011;29217;52.586;13.442;2024-03-06T14:10:41;25.25;;;8.68;;
43626;SDS011;29217;52.586;13.442;2024-03-06T14:13:07;29.48;;;10.10;;
43626;SDS011;29217;52.586;13.442;2024-03-06T14:15:33;26.17;;;10.32;;
43626;SDS011;29217;52.586;13.442;2024-03-06T14:17:59;42.70;;;12.80;;
43626;SDS011;29217;52.586;13.442;2024-03-06T14:20:27;37.05;;;13.68;;
43626;SDS011;29217;52.586;13.442;2024-03-06T14:22:54;34.20;;;11.55;;
43626;SDS011;29217;52.586;13.442;2024-03-06T14:25:20;38.33;;;13.82;;
43626;SDS011;29217;52.586;13.442;2024-03-06T14:27:46;39.60;;;14.23;;
43626;SDS011;29217;52.586;13.442;2024-03-06T14:30:13;42.20;;;11.75;;